Time;durP1;ratioP1;P1;durP2;ratioP2;P2;SDS_P1;SDS_P2;PMS_P1;PMS_P2;Temp;Humidity;BMP_temperature;BMP_pressure;BME280_temperature;BME280_humidity;BME280_pressure;Samples;Min_cycle;Max_cycle;Signal;HPM_P1;HPM_P2
2022/05/29 00:00:48;;;;;;;5.07;1.60;;;11.40;99.90;;;;;;5117154;28;20214;-65
2022/05/29 00:03:14;;;;;;;4.80;1.80;;;11.40;99.90;;;;;;5117681;28;20654;-65
2022/05/29 00:05:41;;;;;;;3.57;1.50;;;11.50;99.90;;;;;;5116677;28;20197;-64
2022/05/29 00:08:09;;;;;;;7.07;1.70;;;11.40;99.90;;;;;;5116709;28;20245;-65
2022/05/29 00:10:37;;;;;;;2.30;1.50;;;11.40;99.90;;;;;;5116518;28;20174;-64
2022/05/29 00:13:03;;;;;;;4.70;1.73;;;11.30;99.90;;;;;;5116788;28;20154;-64
2022/05/29 00:15:29;;;;;;;2.50;1.20;;;11.20;99.90;;;;;;5117392;28;20505;-64
2022/05/29 00:17:55;;;;;;;2.90;1.80;;;11.20;99.90;;;;;;5116907;28;20154;-64
2022/05/29 00:20:20;;;;;;;5.23;1.77;;;11.20;99.90;;;;;;5116428;28;20250;-64
2022/05/29 00:22:46;;;;;;;3.40;1.60;;;11.20;99.90;;;;;;5116305;28;20544;-65
2022/05/29 00:25:12;;;;;;;3.63;1.90;;;11.10;99.90;;;;;;5116460;28;20170;-65
2022/05/29 00:27:38;;;;;;;4.77;1.83;;;11.10;99.90;;;;;;5116922;28;20241;-63
2022/05/29 00:30:07;;;;;;;3.93;1.63;;;11.10;99.90;;;;;;5116737;28;20196;-64
2022/05/29 00:32:33;;;;;;;3.50;1.70;;;11.00;99.90;;;;;;5116362;28;20657;-63
2022/05/29 00:34:58;;;;;;;6.47;2.13;;;10.90;99.90;;;;;;5116553;28;20205;-65
2022/05/29 00:37:24;;;;;;;6.73;2.00;;;11.00;99.90;;;;;;5116282;28;20162;-66
2022/05/29 00:39:52;;;;;;;3.67;2.00;;;10.90;99.90;;;;;;5116384;28;20154;-63
2022/05/29 00:42:22;;;;;;;2.00;1.63;;;10.90;99.90;;;;;;5116304;28;20158;-63
2022/05/29 00:44:49;;;;;;;6.23;1.83;;;10.90;99.90;;;;;;5115586;28;20192;-63
2022/05/29 00:47:23;;;;;;;3.30;1.97;;;10.90;99.90;;;;;;5116227;28;20293;-63
2022/05/29 00:49:50;;;;;;;3.90;2.07;;;10.90;99.90;;;;;;5116522;28;20651;-64
2022/05/29 00:52:23;;;;;;;6.60;1.87;;;10.80;99.90;;;;;;5094593;28;20503;-63
2022/05/29 00:54:55;;;;;;;3.70;1.60;;;10.80;99.90;;;;;;5116095;28;20155;-64
2022/05/29 00:57:27;;;;;;;3.47;2.23;;;10.70;99.90;;;;;;5116169;28;20165;-65
2022/05/29 00:59:55;;;;;;;5.67;2.07;;;10.80;99.90;;;;;;5116294;28;20170;-64
2022/05/29 01:02:21;;;;;;;5.53;2.27;;;10.80;99.90;;;;;;5116199;28;20167;-64
2022/05/29 01:04:47;;;;;;;2.90;1.87;;;10.70;99.90;;;;;;5116124;28;20219;-64
2022/05/29 01:07:16;;;;;;;7.33;2.13;;;10.70;99.90;;;;;;5115683;28;20203;-65
2022/05/29 01:09:44;;;;;;;4.53;2.13;;;10.60;99.90;;;;;;5116039;28;20166;-66
2022/05/29 01:12:39;;;;;;;2.63;1.90;;;10.60;99.90;;;;;;5115799;28;20165;-65
2022/05/29 01:15:39;;;;;;;3.00;1.90;;;10.60;99.90;;;;;;5116106;28;20162;-63
2022/05/29 01:18:15;;;;;;;5.77;2.03;;;10.60;99.90;;;;;;5098001;28;20590;-64
2022/05/29 01:21:15;;;;;;;4.17;1.90;;;10.60;99.90;;;;;;5115337;28;20164;-63
2022/05/29 01:23:52;;;;;;;4.67;1.80;;;10.50;99.90;;;;;;5115836;28;20167;-63
2022/05/29 01:26:46;;;;;;;5.77;2.40;;;10.40;99.90;;;;;;5116777;28;20301;-63
2022/05/29 01:29:30;;;;;;;2.60;1.50;;;10.30;99.90;;;;;;5114919;28;20186;-65
2022/05/29 01:32:08;;;;;;;3.57;1.90;;;10.40;99.90;;;;;;5115825;28;20586;-64
2022/05/29 01:34:41;;;;;;;4.10;1.97;;;10.30;99.90;;;;;;5116061;28;20252;-65
2022/05/29 01:37:27;;;;;;;3.37;1.90;;;10.40;99.90;;;;;;5116941;28;20166;-65
2022/05/29 01:40:10;;;;;;;5.57;2.10;;;10.10;99.90;;;;;;5118769;28;20166;-64
2022/05/29 01:42:53;;;;;;;2.83;1.70;;;10.10;99.90;;;;;;5122968;28;20154;-65
2022/05/29 01:45:34;;;;;;;5.17;1.80;;;10.10;99.90;;;;;;5130328;28;20158;-63
2022/05/29 01:48:20;;;;;;;3.43;2.17;;;10.20;99.90;;;;;;5130959;28;20174;-65
2022/05/29 01:50:59;;;;;;;4.77;2.40;;;9.80;99.90;;;;;;5133471;28;20150;-65
2022/05/29 01:53:31;;;;;;;4.20;2.43;;;9.90;99.90;;;;;;5099466;28;20178;-64
2022/05/29 01:56:01;;;;;;;4.93;2.20;;;9.70;99.90;;;;;;5114288;28;20158;-65
2022/05/29 01:58:36;;;;;;;3.30;2.10;;;9.60;99.90;;;;;;5114912;28;20158;-63
2022/05/29 02:01:04;;;;;;;6.80;2.23;;;9.60;99.90;;;;;;5114789;28;20240;-63
2022/05/29 02:03:42;;;;;;;5.80;2.50;;;9.40;99.90;;;;;;5114817;28;20586;-64
2022/05/29 02:06:15;;;;;;;6.30;2.23;;;9.40;99.90;;;;;;5114494;28;20194;-64
2022/05/29 02:08:45;;;;;;;4.63;2.50;;;9.40;99.90;;;;;;5114721;28;20165;-65
2022/05/29 02:11:25;;;;;;;6.00;2.07;;;9.50;99.90;;;;;;5115189;28;20652;-66
2022/05/29 02:14:14;;;;;;;3.70;1.70;;;9.60;99.90;;;;;;5118835;28;20207;-64
2022/05/29 02:16:47;;;;;;;2.83;1.80;;;9.70;99.90;;;;;;5119475;28;20222;-64
2022/05/29 02:19:34;;;;;;;4.70;1.67;;;9.90;99.90;;;;;;5120825;28;20154;-66
2022/05/29 02:22:19;;;;;;;5.70;2.20;;;9.90;99.90;;;;;;5124992;28;20244;-62
2022/05/29 02:24:54;;;;;;;3.67;1.80;;;9.90;99.90;;;;;;5115736;28;20162;-64
2022/05/29 02:28:08;;;;;;;6.43;2.20;;;9.90;99.90;;;;;;5115261;28;20221;-62
2022/05/29 02:30:54;;;;;;;2.93;1.97;;;9.90;99.90;;;;;;5012541;28;20193;-65
2022/05/29 02:33:29;;;;;;;3.13;1.60;;;9.80;99.90;;;;;;5011374;28;20232;-64
2022/05/29 02:36:22;;;;;;;4.27;1.70;;;9.90;99.90;;;;;;5012700;28;20181;-64
2022/05/29 02:39:07;;;;;;;2.70;1.70;;;10.00;99.90;;;;;;5013659;28;20228;-66
2022/05/29 02:42:00;;;;;;;5.40;1.73;;;9.80;99.90;;;;;;5013826;28;20179;-64
2022/05/29 02:45:11;;;;;;;5.20;1.80;;;9.70;99.90;;;;;;4998597;28;20193;-65
2022/05/29 02:47:45;;;;;;;2.40;1.63;;;9.80;99.90;;;;;;5016276;28;20193;-64
2022/05/29 02:50:54;;;;;;;2.13;1.80;;;9.70;99.90;;;;;;5018226;28;20174;-64
2022/05/29 02:53:20;;;;;;;3.60;1.70;;;9.70;99.90;;;;;;4960468;29;20186;-64
2022/05/29 02:55:46;;;;;;;2.90;1.73;;;9.70;99.90;;;;;;5017714;28;20212;-63
2022/05/29 02:58:19;;;;;;;8.27;2.17;;;9.70;99.90;;;;;;5025341;28;20287;-64
2022/05/29 03:01:20;;;;;;;7.13;2.33;;;9.60;99.90;;;;;;5027659;28;20196;-64
2022/05/29 03:03:52;;;;;;;3.33;1.63;;;9.60;99.90;;;;;;5038972;28;20186;-64
2022/05/29 03:06:43;;;;;;;5.57;2.10;;;9.30;99.90;;;;;;5114219;28;20198;-63
2022/05/29 03:09:41;;;;;;;8.03;1.90;;;9.30;99.90;;;;;;5117646;28;20196;-64
2022/05/29 03:12:58;;;;;;;3.67;1.83;;;9.10;99.90;;;;;;5118371;28;20159;-63
2022/05/29 03:15:29;;;;;;;5.30;2.20;;;9.10;99.90;;;;;;5096722;28;20196;-65
2022/05/29 03:18:18;;;;;;;5.40;2.13;;;9.00;99.90;;;;;;5099992;28;20185;-64
2022/05/29 03:21:24;;;;;;;4.07;2.37;;;9.00;99.90;;;;;;5118248;28;20168;-64
2022/05/29 03:24:09;;;;;;;5.63;2.43;;;8.70;99.90;;;;;;5060787;28;20194;-64
2022/05/29 03:26:47;;;;;;;4.63;2.43;;;8.70;99.90;;;;;;5097525;28;20230;-64
2022/05/29 03:29:54;;;;;;;5.83;2.37;;;8.80;99.90;;;;;;5096959;28;20581;-65
2022/05/29 03:32:20;;;;;;;4.50;2.10;;;8.80;99.90;;;;;;5096762;28;20520;-63
2022/05/29 03:34:46;;;;;;;2.37;1.57;;;8.80;99.90;;;;;;5097721;28;20459;-63
2022/05/29 03:37:11;;;;;;;3.97;1.50;;;8.90;99.90;;;;;;5097192;28;20200;-65
2022/05/29 03:39:37;;;;;;;4.33;1.80;;;9.10;99.90;;;;;;5097079;28;20159;-65
2022/05/29 03:42:03;;;;;;;4.90;1.63;;;9.10;99.90;;;;;;5097345;28;20209;-65
2022/05/29 03:44:29;;;;;;;4.20;1.80;;;9.30;99.90;;;;;;5096770;28;20174;-64
2022/05/29 03:46:54;;;;;;;3.80;1.80;;;9.30;99.90;;;;;;5097088;28;20198;-64
2022/05/29 03:49:22;;;;;;;5.97;2.03;;;9.30;99.90;;;;;;5096969;28;20166;-63
2022/05/29 03:51:48;;;;;;;2.97;1.50;;;9.30;99.90;;;;;;5097232;28;20196;-63
2022/05/29 03:54:14;;;;;;;3.57;2.00;;;9.30;99.90;;;;;;5097068;28;20658;-63
2022/05/29 03:56:40;;;;;;;2.77;1.73;;;9.20;99.90;;;;;;5096717;28;20249;-64
2022/05/29 03:59:06;;;;;;;3.50;1.90;;;9.20;99.90;;;;;;5096591;28;20254;-63
2022/05/29 04:01:32;;;;;;;2.67;2.23;;;9.30;99.90;;;;;;5097109;28;20167;-64
2022/05/29 04:03:59;;;;;;;4.53;2.10;;;9.00;99.90;;;;;;5096758;28;20159;-65
2022/05/29 04:06:27;;;;;;;5.27;2.20;;;9.10;99.90;;;;;;5096396;28;20543;-64
2022/05/29 04:14:24;;;;;;;4.53;2.13;;;8.80;99.90;;;;;;5096698;28;20173;-65
2022/05/29 04:16:50;;;;;;;3.40;2.40;;;8.90;99.90;;;;;;5096864;28;20248;-65
2022/05/29 04:19:16;;;;;;;4.03;1.77;;;8.80;99.90;;;;;;5096387;28;20454;-65
2022/05/29 04:21:42;;;;;;;5.87;2.47;;;8.80;99.90;;;;;;5096125;28;20254;-63
2022/05/29 04:24:08;;;;;;;6.20;2.40;;;8.90;99.90;;;;;;5096857;28;20240;-65
2022/05/29 04:26:34;;;;;;;3.27;1.87;;;9.10;99.90;;;;;;5095881;28;20295;-64
2022/05/29 04:29:01;;;;;;;4.20;2.10;;;9.10;99.90;;;;;;5096351;28;20552;-64
2022/05/29 04:31:27;;;;;;;3.73;2.00;;;9.00;99.90;;;;;;5096001;28;20159;-64
2022/05/29 04:33:53;;;;;;;5.90;1.70;;;9.30;99.90;;;;;;5099689;28;20161;-63
2022/05/29 04:36:19;;;;;;;5.07;1.93;;;9.20;99.90;;;;;;5105926;28;20257;-65
2022/05/29 04:38:44;;;;;;;6.30;2.17;;;9.20;99.90;;;;;;5105806;28;20235;-64
2022/05/29 04:41:10;;;;;;;3.53;1.77;;;9.40;99.90;;;;;;5112232;28;20197;-64
2022/05/29 04:43:36;;;;;;;3.43;2.50;;;9.30;99.90;;;;;;5104956;28;20170;-63
2022/05/29 04:46:03;;;;;;;3.33;1.90;;;9.50;99.90;;;;;;5096065;28;20214;-63
2022/05/29 04:48:29;;;;;;;5.30;2.03;;;9.60;99.90;;;;;;5095852;28;20695;-65
2022/05/29 04:51:00;;;;;;;6.53;2.03;;;9.50;99.90;;;;;;5095445;28;20220;-65
2022/05/29 04:53:27;;;;;;;4.07;2.10;;;9.80;99.90;;;;;;5096061;28;20151;-65
2022/05/29 04:55:54;;;;;;;4.40;1.90;;;9.70;99.90;;;;;;5095509;28;20167;-64
2022/05/29 04:58:21;;;;;;;5.00;2.43;;;9.80;99.90;;;;;;5096603;28;20194;-65
2022/05/29 05:00:47;;;;;;;2.73;1.80;;;9.80;99.90;;;;;;5095824;28;20350;-64
2022/05/29 05:03:12;;;;;;;5.20;1.60;;;10.00;99.90;;;;;;5095592;28;20621;-64
2022/05/29 05:05:38;;;;;;;3.60;1.63;;;10.20;99.90;;;;;;5098417;28;20289;-64
2022/05/29 05:08:04;;;;;;;1.80;1.53;;;10.20;99.90;;;;;;5100816;28;20167;-64
2022/05/29 05:10:30;;;;;;;5.00;1.73;;;10.30;99.90;;;;;;5104665;28;20178;-64
2022/05/29 05:12:56;;;;;;;4.57;1.60;;;10.40;99.90;;;;;;5107227;28;20232;-65
2022/05/29 05:15:21;;;;;;;3.00;1.73;;;10.40;99.90;;;;;;5100322;28;20202;-64
2022/05/29 05:17:47;;;;;;;2.23;1.53;;;10.50;99.90;;;;;;5098667;28;20169;-65
2022/05/29 05:20:14;;;;;;;3.20;1.30;;;10.40;99.90;;;;;;5082112;28;20175;-67
2022/05/29 05:22:40;;;;;;;4.73;1.50;;;10.60;99.90;;;;;;5097363;28;20210;-64
2022/05/29 05:25:07;;;;;;;2.43;1.80;;;10.70;99.90;;;;;;5094787;28;20183;-63
2022/05/29 05:27:33;;;;;;;5.17;1.87;;;10.70;99.90;;;;;;5094447;28;20230;-65
2022/05/29 05:29:59;;;;;;;5.23;1.57;;;10.80;99.90;;;;;;5094214;28;20599;-64
2022/05/29 05:32:24;;;;;;;4.53;1.50;;;10.90;99.90;;;;;;5094100;28;20159;-64
2022/05/29 05:34:50;;;;;;;3.07;1.57;;;11.00;99.90;;;;;;5094509;28;20163;-63
2022/05/29 05:37:16;;;;;;;2.67;1.37;;;11.30;99.90;;;;;;5094197;28;20162;-65
2022/05/29 05:39:43;;;;;;;2.37;1.60;;;11.30;99.90;;;;;;5094530;28;20533;-64
2022/05/29 05:42:09;;;;;;;5.80;1.60;;;11.30;99.90;;;;;;5094152;28;20242;-65
2022/05/29 05:44:35;;;;;;;3.03;1.30;;;11.30;99.90;;;;;;5077143;28;20666;-65
2022/05/29 05:47:00;;;;;;;2.30;1.17;;;11.40;99.90;;;;;;5097897;28;20289;-64
2022/05/29 05:49:26;;;;;;;1.80;1.30;;;11.40;99.90;;;;;;5098971;28;20175;-63
2022/05/29 05:51:51;;;;;;;6.37;1.20;;;11.30;99.90;;;;;;5096721;28;20155;-63
2022/05/29 05:54:18;;;;;;;3.90;1.20;;;11.40;99.90;;;;;;5097135;28;20163;-64
2022/05/29 05:56:47;;;;;;;1.77;1.13;;;11.60;99.90;;;;;;5099095;28;20228;-64
2022/05/29 05:59:13;;;;;;;4.23;1.30;;;11.80;99.90;;;;;;5099407;28;20151;-65
2022/05/29 06:01:39;;;;;;;5.03;1.77;;;11.90;99.90;;;;;;5098856;28;20610;-66
2022/05/29 06:04:08;;;;;;;1.90;1.47;;;12.00;99.90;;;;;;5098145;28;20175;-64
2022/05/29 06:06:34;;;;;;;2.43;1.20;;;12.10;99.90;;;;;;5096576;28;20203;-65
2022/05/29 06:09:00;;;;;;;2.60;1.30;;;12.10;99.90;;;;;;5095959;28;20163;-64
2022/05/29 06:11:27;;;;;;;2.50;1.27;;;11.90;99.90;;;;;;5097398;28;20218;-64
2022/05/29 06:13:54;;;;;;;2.87;1.20;;;12.00;99.90;;;;;;5096875;28;20155;-65
2022/05/29 06:16:20;;;;;;;2.57;1.20;;;12.10;99.90;;;;;;5078171;28;20213;-65
2022/05/29 06:18:45;;;;;;;4.57;1.30;;;12.20;99.90;;;;;;5094418;28;20174;-64
2022/05/29 06:21:11;;;;;;;1.57;1.10;;;12.40;99.90;;;;;;5093900;28;20163;-65
2022/05/29 06:23:40;;;;;;;3.57;1.20;;;12.50;99.90;;;;;;5094134;28;20450;-65
2022/05/29 06:26:11;;;;;;;4.83;1.17;;;12.50;99.90;;;;;;5093812;28;20198;-66
2022/05/29 06:28:38;;;;;;;5.30;1.73;;;12.60;99.90;;;;;;5093274;28;20163;-64
2022/05/29 06:31:05;;;;;;;6.20;1.40;;;12.70;99.90;;;;;;5094289;28;20152;-64
2022/05/29 06:33:30;;;;;;;2.80;1.07;;;12.70;99.90;;;;;;5097540;28;20194;-66
2022/05/29 06:36:10;;;;;;;3.00;1.57;;;13.00;99.90;;;;;;5114528;28;20166;-64
2022/05/29 06:38:36;;;;;;;3.93;1.17;;;13.10;99.90;;;;;;5114485;28;20177;-65
2022/05/29 06:41:06;;;;;;;1.90;1.30;;;13.20;99.90;;;;;;5116430;28;20162;-65
2022/05/29 06:43:33;;;;;;;2.20;1.30;;;13.20;99.90;;;;;;5118209;28;20178;-64
2022/05/29 06:46:00;;;;;;;2.40;1.40;;;13.00;99.90;;;;;;5121552;28;20229;-64
2022/05/29 06:48:26;;;;;;;4.17;1.33;;;13.10;99.90;;;;;;5121729;28;20477;-65
2022/05/29 06:50:51;;;;;;;1.40;1.30;;;13.20;99.90;;;;;;5120057;28;20242;-64
2022/05/29 06:53:17;;;;;;;3.00;1.27;;;13.10;99.90;;;;;;5115221;28;20186;-64
2022/05/29 06:55:53;;;;;;;5.23;1.13;;;13.20;99.90;;;;;;5120054;28;20597;-65
2022/05/29 06:58:20;;;;;;;6.93;1.97;;;13.30;99.90;;;;;;5118132;28;20149;-63
2022/05/29 07:08:57;;;;;;;3.20;1.63;;;13.80;99.90;;;;;;5117966;28;20215;-67
2022/05/29 07:11:25;;;;;;;4.00;1.60;;;13.90;99.90;;;;;;5097052;28;20174;-64
2022/05/29 07:13:51;;;;;;;3.23;1.60;;;13.80;99.90;;;;;;5114812;28;20158;-66
2022/05/29 07:16:17;;;;;;;3.70;1.27;;;13.80;99.90;;;;;;5114315;28;20170;-64
2022/05/29 07:18:43;;;;;;;2.83;1.30;;;13.90;99.90;;;;;;5115678;28;20174;-65
2022/05/29 07:21:09;;;;;;;10.73;5.63;;;14.00;99.90;;;;;;5115297;28;20212;-65
2022/05/29 07:23:36;;;;;;;9.13;4.03;;;14.10;99.90;;;;;;5118892;28;20158;-66
2022/05/29 07:26:03;;;;;;;5.03;2.27;;;14.10;99.90;;;;;;5123625;28;20261;-65
2022/05/29 07:28:29;;;;;;;4.03;2.13;;;14.10;99.90;;;;;;5108328;28;20202;-63
2022/05/29 07:30:55;;;;;;;3.90;2.10;;;14.00;99.90;;;;;;5125536;28;20166;-65
2022/05/29 07:33:21;;;;;;;9.10;2.13;;;14.40;99.90;;;;;;5124253;28;20155;-67
2022/05/29 07:35:46;;;;;;;4.40;1.60;;;14.60;99.90;;;;;;5119128;28;20174;-65
2022/05/29 07:38:12;;;;;;;7.10;1.67;;;14.30;99.90;;;;;;5115147;28;20211;-65
2022/05/29 07:40:39;;;;;;;5.47;1.63;;;14.30;99.90;;;;;;5115390;28;20166;-62
2022/05/29 07:43:21;;;;;;;4.57;2.00;;;14.10;99.90;;;;;;5113945;28;20502;-63
2022/05/29 07:45:48;;;;;;;6.07;1.70;;;13.90;99.90;;;;;;5096001;28;20169;-64
2022/05/29 07:48:17;;;;;;;4.10;1.20;;;14.10;99.90;;;;;;5113655;28;20194;-63
2022/05/29 07:50:43;;;;;;;5.97;1.53;;;14.10;99.90;;;;;;5113327;28;20477;-64
2022/05/29 07:53:09;;;;;;;5.17;1.40;;;14.40;99.90;;;;;;5113982;28;20589;-63
2022/05/29 07:55:37;;;;;;;2.83;1.53;;;14.10;99.90;;;;;;5117584;28;20166;-65
2022/05/29 07:58:04;;;;;;;3.73;1.70;;;14.00;99.90;;;;;;5116851;28;20162;-63
2022/05/29 08:00:30;;;;;;;6.53;2.90;;;14.40;99.90;;;;;;5117647;28;20158;-63
2022/05/29 08:02:55;;;;;;;3.87;1.93;;;14.80;99.90;;;;;;5117158;28;20211;-63
2022/05/29 08:05:21;;;;;;;4.43;1.37;;;15.10;97.90;;;;;;5116634;28;20203;-63
2022/05/29 08:07:49;;;;;;;9.87;2.07;;;15.30;96.50;;;;;;5116674;28;20621;-64
2022/05/29 08:10:17;;;;;;;6.47;2.13;;;14.90;97.00;;;;;;5098828;28;20236;-64
2022/05/29 08:12:42;;;;;;;3.33;1.50;;;14.70;97.90;;;;;;5116720;28;20178;-65
2022/05/29 08:15:09;;;;;;;3.33;1.20;;;14.90;97.60;;;;;;5117021;28;20159;-64
2022/05/29 08:17:36;;;;;;;4.87;3.33;;;15.00;96.10;;;;;;5117309;28;20174;-63
2022/05/29 08:20:02;;;;;;;1.43;1.30;;;15.00;96.10;;;;;;5116880;28;20303;-63
2022/05/29 08:22:28;;;;;;;2.30;1.10;;;15.20;95.20;;;;;;5116622;28;20621;-64
2022/05/29 08:30:47;;;;;;;9.03;1.50;;;16.40;92.00;;;;;;5116948;28;20200;-64
2022/05/29 08:33:35;;;;;;;2.97;1.13;;;16.40;90.00;;;;;;5099336;28;20178;-64
2022/05/29 08:36:06;;;;;;;4.43;1.10;;;16.00;87.70;;;;;;5117496;28;20493;-64
2022/05/29 08:38:33;;;;;;;4.13;1.27;;;15.30;90.50;;;;;;5098629;28;20574;-63
2022/05/29 08:41:03;;;;;;;2.07;1.27;;;15.70;91.20;;;;;;5117460;28;20162;-64
2022/05/29 08:43:46;;;;;;;8.93;1.83;;;15.10;90.50;;;;;;5099677;28;20522;-65
2022/05/29 08:46:17;;;;;;;5.23;1.80;;;14.80;92.20;;;;;;5117406;28;20645;-64
2022/05/29 08:48:44;;;;;;;4.93;1.43;;;14.80;92.70;;;;;;5116533;28;20184;-64
2022/05/29 08:51:36;;;;;;;4.63;1.37;;;15.10;92.70;;;;;;5116688;28;20241;-63
2022/05/29 08:54:16;;;;;;;2.53;1.40;;;15.10;91.10;;;;;;5117241;28;20166;-65
2022/05/29 08:57:03;;;;;;;4.23;1.33;;;15.60;91.20;;;;;;5116800;28;20170;-64
2022/05/29 08:59:47;;;;;;;2.60;1.03;;;15.60;87.50;;;;;;5116915;28;20192;-65
2022/05/29 09:02:40;;;;;;;3.33;1.30;;;15.30;89.70;;;;;;5117643;28;20154;-64
2022/05/29 09:05:20;;;;;;;2.90;1.50;;;15.10;86.80;;;;;;5103225;28;20182;-64
2022/05/29 09:07:49;;;;;;;4.50;1.40;;;15.00;87.80;;;;;;5123286;28;20193;-65
2022/05/29 09:10:24;;;;;;;3.77;1.60;;;14.90;90.50;;;;;;5125195;28;20246;-64
2022/05/29 09:12:53;;;;;;;4.70;1.20;;;14.90;89.60;;;;;;5122785;28;20571;-64
2022/05/29 09:15:26;;;;;;;6.43;1.50;;;15.50;89.70;;;;;;5116304;28;20158;-64
2022/05/29 09:17:58;;;;;;;3.53;1.37;;;15.60;88.50;;;;;;5115699;28;20166;-64
2022/05/29 09:20:37;;;;;;;3.53;1.07;;;15.30;87.90;;;;;;5116695;28;20587;-63
2022/05/29 09:23:06;;;;;;;3.53;1.40;;;15.10;90.00;;;;;;5098011;28;20173;-64
2022/05/29 09:25:35;;;;;;;4.70;1.23;;;14.90;88.80;;;;;;5115081;28;20641;-64
2022/05/29 09:28:11;;;;;;;1.83;1.20;;;14.90;89.00;;;;;;5115091;28;20226;-63
2022/05/29 09:30:38;;;;;;;1.20;1.10;;;15.00;87.60;;;;;;5115870;28;20170;-64
2022/05/29 09:33:12;;;;;;;3.70;1.90;;;15.40;87.00;;;;;;5116191;28;20628;-64
2022/05/29 09:35:50;;;;;;;2.17;1.20;;;16.40;85.30;;;;;;5102173;28;20278;-65
2022/05/29 09:38:34;;;;;;;1.93;1.10;;;16.80;77.00;;;;;;5126832;28;20189;-62
2022/05/29 09:41:22;;;;;;;3.50;1.20;;;17.20;71.80;;;;;;5125038;28;20194;-63
2022/05/29 09:44:11;;;;;;;2.85;1.30;;;17.00;70.30;;;;;;5125965;28;20162;-64
2022/05/29 09:46:42;;;;;;;2.80;1.40;;;16.10;75.10;;;;;;5114263;28;20301;-64
2022/05/29 09:52:24;;;;;;;2.73;1.37;;;16.20;80.20;;;;;;5114985;28;20192;-64
2022/05/29 09:55:03;;;;;;;2.27;1.13;;;16.80;78.60;;;;;;5115749;28;20162;-64
2022/05/29 09:57:41;;;;;;;2.78;1.23;;;17.30;74.80;;;;;;5114560;28;20178;-63
2022/05/29 10:00:15;;;;;;;4.90;1.40;;;17.50;72.00;;;;;;5114191;28;20169;-65
2022/05/29 10:02:45;;;;;;;6.38;1.33;;;17.00;71.50;;;;;;5115256;28;20170;-64
2022/05/29 10:05:41;;;;;;;2.60;1.40;;;17.60;74.80;;;;;;5114484;28;20162;-64
2022/05/29 10:08:31;;;;;;;2.08;1.20;;;16.70;70.50;;;;;;5075333;28;20251;-65
2022/05/29 10:11:20;;;;;;;2.75;1.17;;;16.40;71.90;;;;;;5114416;28;20170;-64
2022/05/29 10:13:46;;;;;;;2.00;0.90;;;16.00;72.00;;;;;;5114425;28;20617;-64
2022/05/29 10:16:28;;;;;;;2.30;1.70;;;16.60;70.60;;;;;;5114520;28;20154;-64
2022/05/29 10:18:53;;;;;;;2.75;1.48;;;17.30;70.00;;;;;;5114421;28;20173;-64
2022/05/29 10:21:27;;;;;;;1.70;1.10;;;17.90;64.30;;;;;;5114939;28;20158;-63
2022/05/29 10:24:37;;;;;;;1.63;1.00;;;18.00;60.70;;;;;;5115152;28;20178;-68
2022/05/29 10:27:14;;;;;;;1.88;1.05;;;17.70;59.60;;;;;;5104092;28;20312;-64
2022/05/29 10:29:41;;;;;;;3.70;1.20;;;17.80;62.00;;;;;;5114168;28;20166;-65
2022/05/29 10:32:10;;;;;;;2.10;1.48;;;17.80;62.90;;;;;;5096202;28;20170;-62
2022/05/29 10:34:40;;;;;;;2.92;0.98;;;17.90;63.80;;;;;;5114431;28;20194;-64
2022/05/29 10:37:36;;;;;;;2.25;1.40;;;17.10;61.70;;;;;;5096072;28;20262;-64
2022/05/29 10:40:11;;;;;;;1.08;0.95;;;16.90;62.50;;;;;;5113504;28;20158;-65
2022/05/29 10:42:46;;;;;;;2.15;0.98;;;16.90;61.80;;;;;;5113646;28;20166;-64
2022/05/29 10:45:28;;;;;;;4.43;1.20;;;16.90;60.50;;;;;;5114128;28;20161;-65
2022/05/29 10:48:06;;;;;;;1.80;1.10;;;16.90;58.70;;;;;;5113771;28;20633;-64
2022/05/29 10:50:59;;;;;;;2.50;1.55;;;16.90;59.80;;;;;;5114027;28;20164;-63
2022/05/29 10:53:50;;;;;;;1.85;1.33;;;17.00;62.70;;;;;;5114181;28;20158;-66
2022/05/29 10:56:42;;;;;;;1.95;1.10;;;17.70;62.40;;;;;;5114297;28;20535;-64
2022/05/29 10:59:27;;;;;;;3.08;1.40;;;17.90;58.80;;;;;;5114391;28;20614;-65
2022/05/29 11:05:11;;;;;;;2.33;1.20;;;18.10;55.10;;;;;;5080273;28;20188;-65
2022/05/29 11:08:14;;;;;;;1.10;0.98;;;18.10;54.40;;;;;;5113802;28;20533;-66
2022/05/29 11:10:56;;;;;;;2.88;1.25;;;17.80;56.60;;;;;;5114244;28;20161;-64
2022/05/29 11:13:30;;;;;;;2.20;1.10;;;17.50;58.30;;;;;;5115004;28;20173;-66
2022/05/29 11:16:11;;;;;;;2.53;1.30;;;17.50;58.60;;;;;;5116794;28;20158;-66
2022/05/29 11:18:43;;;;;;;3.78;1.48;;;18.10;57.60;;;;;;5123778;28;20166;-67
2022/05/29 11:21:32;;;;;;;1.55;1.30;;;18.40;55.40;;;;;;5122545;28;20171;-65
2022/05/29 11:24:28;;;;;;;1.60;1.15;;;19.00;55.60;;;;;;5112354;28;20298;-65
2022/05/29 11:27:28;;;;;;;2.45;1.27;;;18.80;52.80;;;;;;5115389;28;20240;-64
2022/05/29 11:30:00;;;;;;;1.92;1.05;;;18.30;52.80;;;;;;5099701;28;20457;-66
2022/05/29 11:32:47;;;;;;;2.50;1.00;;;18.20;54.60;;;;;;5117671;28;20249;-64
2022/05/29 11:35:34;;;;;;;2.03;1.30;;;17.80;53.20;;;;;;5117967;28;20168;-66
2022/05/29 11:38:12;;;;;;;2.00;1.00;;;17.40;54.00;;;;;;5118154;28;20166;-66
2022/05/29 11:40:44;;;;;;;1.42;1.08;;;17.00;54.90;;;;;;5119055;28;20478;-65
2022/05/29 11:43:29;;;;;;;3.78;1.30;;;17.20;55.00;;;;;;5119398;28;20154;-64
2022/05/29 11:51:59;;;;;;;3.55;1.33;;;18.30;52.10;;;;;;5127233;28;20165;-65
2022/05/29 11:54:39;;;;;;;3.13;1.40;;;18.20;53.50;;;;;;5125719;28;20170;-67
2022/05/29 11:57:19;;;;;;;3.97;1.30;;;18.30;53.20;;;;;;5126086;28;20166;-64
2022/05/29 11:59:45;;;;;;;2.15;0.90;;;18.00;53.40;;;;;;5123328;28;20582;-65
2022/05/29 12:02:19;;;;;;;2.22;1.40;;;17.90;55.20;;;;;;5117213;28;20173;-64
2022/05/29 12:04:53;;;;;;;2.15;1.67;;;17.70;56.60;;;;;;5116716;28;20166;-64
2022/05/29 12:07:27;;;;;;;2.95;1.50;;;18.80;57.80;;;;;;5116817;28;20198;-65
2022/05/29 12:10:03;;;;;;;2.40;0.90;;;18.70;56.90;;;;;;5099044;28;20185;-65
2022/05/29 12:12:38;;;;;;;4.95;1.05;;;18.20;55.90;;;;;;5116312;28;20161;-64
2022/05/29 12:15:09;;;;;;;2.13;1.35;;;17.80;58.00;;;;;;5117058;28;20300;-63
2022/05/29 12:17:58;;;;;;;3.67;1.40;;;18.20;57.60;;;;;;5116846;28;20170;-64
2022/05/29 12:20:33;;;;;;;1.95;1.23;;;18.30;56.00;;;;;;5116217;28;20582;-64
2022/05/29 12:23:04;;;;;;;1.65;1.20;;;17.70;56.30;;;;;;5116409;28;20617;-66
2022/05/29 12:25:37;;;;;;;2.00;0.88;;;17.50;57.00;;;;;;5116336;28;20261;-64
2022/05/29 12:28:07;;;;;;;6.22;3.53;;;17.40;56.80;;;;;;5115908;28;20237;-66
2022/05/29 12:30:43;;;;;;;1.58;1.30;;;17.30;57.60;;;;;;5115946;28;20150;-64
2022/05/29 12:33:13;;;;;;;2.72;1.88;;;18.10;57.70;;;;;;5116361;28;20223;-63
2022/05/29 12:35:56;;;;;;;2.45;1.13;;;18.20;58.30;;;;;;5099181;28;20476;-64
2022/05/29 12:38:39;;;;;;;4.70;1.67;;;17.90;59.30;;;;;;5117151;28;20166;-67
2022/05/29 12:41:34;;;;;;;2.83;1.40;;;17.90;60.90;;;;;;5117257;28;20173;-64
2022/05/29 12:44:35;;;;;;;2.53;1.60;;;17.80;61.00;;;;;;5119056;28;20154;-65
2022/05/29 12:47:09;;;;;;;2.83;1.90;;;18.70;59.70;;;;;;5121015;28;20193;-65
2022/05/29 12:49:58;;;;;;;3.67;1.27;;;19.60;58.00;;;;;;5117534;28;20303;-64
2022/05/29 12:53:13;;;;;;;3.22;1.20;;;19.20;56.80;;;;;;5113376;28;20578;-65
2022/05/29 12:56:10;;;;;;;7.50;1.30;;;18.40;55.30;;;;;;5014806;28;20177;-63
2022/05/29 12:58:54;;;;;;;1.05;1.00;;;18.20;57.50;;;;;;4981640;28;20189;-64
2022/05/29 13:01:32;;;;;;;3.13;1.48;;;18.40;58.80;;;;;;5106448;28;20625;-63
2022/05/29 13:04:10;;;;;;;2.05;1.42;;;18.50;59.40;;;;;;5120009;28;20172;-65
2022/05/29 13:07:13;;;;;;;2.22;1.52;;;18.10;60.40;;;;;;5100048;28;20198;-65
2022/05/29 13:10:04;;;;;;;2.05;1.30;;;17.90;62.30;;;;;;5119752;28;20227;-65
2022/05/29 13:12:42;;;;;;;2.80;1.38;;;17.80;61.50;;;;;;5121900;28;20177;-64
2022/05/29 13:15:12;;;;;;;2.53;1.27;;;17.60;61.50;;;;;;5108025;28;20169;-64
2022/05/29 13:17:39;;;;;;;3.30;1.80;;;17.40;61.00;;;;;;5127094;28;20619;-64
2022/05/29 13:20:11;;;;;;;1.85;1.23;;;17.50;63.40;;;;;;5129324;28;20162;-65
2022/05/29 13:23:04;;;;;;;4.72;2.03;;;17.40;64.40;;;;;;5122077;28;20165;-69
2022/05/29 13:25:36;;;;;;;1.98;1.08;;;17.50;67.00;;;;;;5120098;28;20174;-64
2022/05/29 13:28:26;;;;;;;1.90;1.40;;;17.60;65.90;;;;;;5121010;28;20230;-65
2022/05/29 13:31:12;;;;;;;1.83;1.13;;;17.40;66.50;;;;;;5121325;28;20177;-66
2022/05/29 13:33:46;;;;;;;1.40;1.30;;;17.40;66.80;;;;;;5082152;28;20224;-65
2022/05/29 13:36:37;;;;;;;2.72;1.67;;;17.10;67.90;;;;;;5098557;28;20169;-66
2022/05/29 13:39:06;;;;;;;1.60;1.50;;;17.30;69.10;;;;;;5078579;28;20179;-64
2022/05/29 13:41:50;;;;;;;2.33;1.30;;;17.30;68.90;;;;;;5098067;28;20233;-63
2022/05/29 13:44:41;;;;;;;1.30;1.17;;;17.30;67.80;;;;;;5098266;28;20158;-65
2022/05/29 13:47:19;;;;;;;3.67;2.20;;;17.30;67.90;;;;;;5098202;28;20194;-64
2022/05/29 13:49:50;;;;;;;4.95;1.50;;;17.30;68.60;;;;;;5077106;28;20182;-65
2022/05/29 13:52:22;;;;;;;2.03;1.60;;;17.30;68.10;;;;;;5096554;28;20167;-64
2022/05/29 13:55:07;;;;;;;1.67;1.40;;;17.40;67.80;;;;;;5096070;28;20167;-63
2022/05/29 14:06:27;;;;;;;2.65;1.50;;;17.20;71.20;;;;;;5094327;28;20201;-65